Freistatt, Missouri
Current Conditions -  °F | °C
As of 10:35 AM on Friday 31 Oct 2014 (Local Time) from KHFJ Reporting Station
Overcast Overcast  
Wind Chill: 32°   Ceiling: 2200
Heat Index: 41°   Visibility: 10mi
Dew Point: 34°   Wind: 18mph
Humidity: 76%   Direction: 360°N
Pressure: 30.36"   Gusts: 23mph
Location:  37.02°N, 93.9°W
Report Text: KHFJ 311535Z AUTO 36016G20KT 10SM OVC022 05/01 A3036 RMK AO2
Loading
Personal Weather Stations






























Interactive Weather Map
Tropical Storm Tracking
New forecast layout! Learn more

10-Day Weather Forecast

Advertisements
Track Severe Weather on mobile